sensor_id;sensor_type;location;lat;lon;timestamp;P1;durP1;ratioP1;P2;durP2;ratioP2
37903;SDS011;23738;50.422;18.758;2023-12-07T00:00:19;168.60;;;69.70;;
37903;SDS011;23738;50.422;18.758;2023-12-07T00:02:48;187.70;;;74.70;;
37903;SDS011;23738;50.422;18.758;2023-12-07T00:05:18;178.10;;;74.70;;
37903;SDS011;23738;50.422;18.758;2023-12-07T00:07:48;173.00;;;72.10;;
37903;SDS011;23738;50.422;18.758;2023-12-07T00:10:18;174.60;;;71.50;;
37903;SDS011;23738;50.422;18.758;2023-12-07T00:12:48;171.90;;;68.60;;
37903;SDS011;23738;50.422;18.758;2023-12-07T00:15:18;168.30;;;67.30;;
37903;SDS011;23738;50.422;18.758;2023-12-07T00:17:48;172.90;;;67.70;;
37903;SDS011;23738;50.422;18.758;2023-12-07T00:20:18;178.40;;;72.00;;
37903;SDS011;23738;50.422;18.758;2023-12-07T00:22:48;163.70;;;67.30;;
37903;SDS011;23738;50.422;18.758;2023-12-07T00:25:18;162.60;;;68.80;;
37903;SDS011;23738;50.422;18.758;2023-12-07T00:27:48;173.70;;;70.70;;
37903;SDS011;23738;50.422;18.758;2023-12-07T00:30:19;168.20;;;68.20;;
37903;SDS011;23738;50.422;18.758;2023-12-07T00:32:48;165.00;;;68.80;;
37903;SDS011;23738;50.422;18.758;2023-12-07T00:35:19;146.80;;;62.00;;
37903;SDS011;23738;50.422;18.758;2023-12-07T00:37:49;163.80;;;62.20;;
37903;SDS011;23738;50.422;18.758;2023-12-07T00:40:19;141.40;;;60.10;;
37903;SDS011;23738;50.422;18.758;2023-12-07T00:42:49;149.20;;;62.40;;
37903;SDS011;23738;50.422;18.758;2023-12-07T00:45:19;155.90;;;63.90;;
37903;SDS011;23738;50.422;18.758;2023-12-07T00:47:49;150.40;;;63.10;;
37903;SDS011;23738;50.422;18.758;2023-12-07T00:50:19;151.50;;;64.40;;
37903;SDS011;23738;50.422;18.758;2023-12-07T00:52:48;148.10;;;65.10;;
37903;SDS011;23738;50.422;18.758;2023-12-07T00:55:18;153.80;;;65.00;;
37903;SDS011;23738;50.422;18.758;2023-12-07T00:57:48;159.70;;;68.20;;
37903;SDS011;23738;50.422;18.758;2023-12-07T01:00:18;162.30;;;68.10;;
37903;SDS011;23738;50.422;18.758;2023-12-07T01:02:48;166.40;;;65.50;;
37903;SDS011;23738;50.422;18.758;2023-12-07T01:05:18;156.70;;;65.10;;
37903;SDS011;23738;50.422;18.758;2023-12-07T01:07:48;153.50;;;62.90;;
37903;SDS011;23738;50.422;18.758;2023-12-07T01:10:18;161.40;;;66.00;;
37903;SDS011;23738;50.422;18.758;2023-12-07T01:12:48;153.60;;;64.80;;
37903;SDS011;23738;50.422;18.758;2023-12-07T01:15:18;155.10;;;64.20;;
37903;SDS011;23738;50.422;18.758;2023-12-07T01:17:48;156.30;;;65.50;;
37903;SDS011;23738;50.422;18.758;2023-12-07T01:20:18;161.80;;;66.20;;
37903;SDS011;23738;50.422;18.758;2023-12-07T01:22:48;150.20;;;64.00;;
37903;SDS011;23738;50.422;18.758;2023-12-07T01:25:18;158.20;;;67.40;;
37903;SDS011;23738;50.422;18.758;2023-12-07T01:27:48;151.70;;;64.10;;
37903;SDS011;23738;50.422;18.758;2023-12-07T01:30:18;149.30;;;60.20;;
37903;SDS011;23738;50.422;18.758;2023-12-07T01:32:48;154.80;;;61.10;;
37903;SDS011;23738;50.422;18.758;2023-12-07T01:35:18;152.10;;;60.50;;
37903;SDS011;23738;50.422;18.758;2023-12-07T01:37:48;160.70;;;63.90;;
37903;SDS011;23738;50.422;18.758;2023-12-07T01:40:18;152.90;;;62.60;;
37903;SDS011;23738;50.422;18.758;2023-12-07T01:42:51;153.00;;;65.00;;
37903;SDS011;23738;50.422;18.758;2023-12-07T01:45:21;149.20;;;64.20;;
37903;SDS011;23738;50.422;18.758;2023-12-07T01:47:51;158.50;;;64.60;;
37903;SDS011;23738;50.422;18.758;2023-12-07T01:50:23;151.20;;;62.40;;
37903;SDS011;23738;50.422;18.758;2023-12-07T01:52:56;157.30;;;65.40;;
37903;SDS011;23738;50.422;18.758;2023-12-07T01:55:29;152.90;;;59.80;;
37903;SDS011;23738;50.422;18.758;2023-12-07T01:58:00;148.90;;;57.70;;
37903;SDS011;23738;50.422;18.758;2023-12-07T02:00:30;146.90;;;60.40;;
37903;SDS011;23738;50.422;18.758;2023-12-07T02:03:01;145.50;;;59.50;;
37903;SDS011;23738;50.422;18.758;2023-12-07T02:05:32;144.80;;;57.90;;
37903;SDS011;23738;50.422;18.758;2023-12-07T02:08:03;149.30;;;62.00;;
37903;SDS011;23738;50.422;18.758;2023-12-07T02:10:33;166.30;;;65.90;;
37903;SDS011;23738;50.422;18.758;2023-12-07T02:13:03;151.80;;;63.10;;
37903;SDS011;23738;50.422;18.758;2023-12-07T02:15:34;155.70;;;66.00;;
37903;SDS011;23738;50.422;18.758;2023-12-07T02:18:06;154.20;;;67.40;;
37903;SDS011;23738;50.422;18.758;2023-12-07T02:20:44;160.40;;;65.20;;
37903;SDS011;23738;50.422;18.758;2023-12-07T02:23:19;167.30;;;65.80;;
37903;SDS011;23738;50.422;18.758;2023-12-07T02:28:58;157.50;;;65.10;;
37903;SDS011;23738;50.422;18.758;2023-12-07T02:31:28;160.40;;;67.40;;
37903;SDS011;23738;50.422;18.758;2023-12-07T02:33:58;157.90;;;66.00;;
37903;SDS011;23738;50.422;18.758;2023-12-07T02:36:28;156.90;;;66.60;;
37903;SDS011;23738;50.422;18.758;2023-12-07T02:39:00;153.20;;;61.20;;
37903;SDS011;23738;50.422;18.758;2023-12-07T02:41:31;153.00;;;63.70;;
37903;SDS011;23738;50.422;18.758;2023-12-07T02:44:03;145.80;;;61.50;;
37903;SDS011;23738;50.422;18.758;2023-12-07T02:46:34;142.20;;;59.00;;
37903;SDS011;23738;50.422;18.758;2023-12-07T02:49:04;137.70;;;55.40;;
37903;SDS011;23738;50.422;18.758;2023-12-07T02:51:34;136.30;;;57.10;;
37903;SDS011;23738;50.422;18.758;2023-12-07T02:54:05;144.30;;;57.70;;
37903;SDS011;23738;50.422;18.758;2023-12-07T02:56:35;133.60;;;56.30;;
37903;SDS011;23738;50.422;18.758;2023-12-07T02:59:05;137.80;;;57.00;;
37903;SDS011;23738;50.422;18.758;2023-12-07T03:01:35;158.50;;;62.40;;
37903;SDS011;23738;50.422;18.758;2023-12-07T03:04:06;146.80;;;60.80;;
37903;SDS011;23738;50.422;18.758;2023-12-07T03:06:36;140.70;;;61.00;;
37903;SDS011;23738;50.422;18.758;2023-12-07T03:09:08;151.40;;;63.80;;
37903;SDS011;23738;50.422;18.758;2023-12-07T03:11:39;138.80;;;58.00;;
37903;SDS011;23738;50.422;18.758;2023-12-07T03:14:10;137.10;;;55.30;;
37903;SDS011;23738;50.422;18.758;2023-12-07T03:16:41;133.60;;;55.30;;
37903;SDS011;23738;50.422;18.758;2023-12-07T03:19:11;142.60;;;57.60;;
37903;SDS011;23738;50.422;18.758;2023-12-07T03:21:41;147.60;;;56.50;;
37903;SDS011;23738;50.422;18.758;2023-12-07T03:24:11;135.60;;;55.20;;
37903;SDS011;23738;50.422;18.758;2023-12-07T03:26:42;127.80;;;54.40;;
37903;SDS011;23738;50.422;18.758;2023-12-07T03:29:11;138.30;;;57.00;;
37903;SDS011;23738;50.422;18.758;2023-12-07T03:31:41;140.50;;;57.10;;
37903;SDS011;23738;50.422;18.758;2023-12-07T03:34:12;132.30;;;55.70;;
37903;SDS011;23738;50.422;18.758;2023-12-07T03:36:44;136.70;;;56.80;;
37903;SDS011;23738;50.422;18.758;2023-12-07T03:39:14;141.80;;;52.60;;
37903;SDS011;23738;50.422;18.758;2023-12-07T03:41:48;144.40;;;54.90;;
37903;SDS011;23738;50.422;18.758;2023-12-07T03:44:18;135.30;;;55.00;;
37903;SDS011;23738;50.422;18.758;2023-12-07T03:46:48;144.20;;;57.40;;
37903;SDS011;23738;50.422;18.758;2023-12-07T03:49:18;134.90;;;56.30;;
37903;SDS011;23738;50.422;18.758;2023-12-07T03:51:48;137.60;;;60.70;;
37903;SDS011;23738;50.422;18.758;2023-12-07T03:54:18;132.90;;;55.70;;
37903;SDS011;23738;50.422;18.758;2023-12-07T03:56:48;141.20;;;59.90;;
37903;SDS011;23738;50.422;18.758;2023-12-07T03:59:18;149.30;;;62.60;;
37903;SDS011;23738;50.422;18.758;2023-12-07T04:01:48;144.90;;;63.00;;
37903;SDS011;23738;50.422;18.758;2023-12-07T04:04:17;140.50;;;59.60;;
37903;SDS011;23738;50.422;18.758;2023-12-07T04:06:47;149.40;;;58.10;;
37903;SDS011;23738;50.422;18.758;2023-12-07T04:09:17;143.90;;;59.90;;
37903;SDS011;23738;50.422;18.758;2023-12-07T04:11:47;140.80;;;58.80;;
37903;SDS011;23738;50.422;18.758;2023-12-07T04:14:17;146.00;;;60.20;;
37903;SDS011;23738;50.422;18.758;2023-12-07T04:16:47;153.60;;;63.40;;
37903;SDS011;23738;50.422;18.758;2023-12-07T04:19:17;140.90;;;61.90;;
37903;SDS011;23738;50.422;18.758;2023-12-07T04:21:47;152.70;;;65.20;;
37903;SDS011;23738;50.422;18.758;2023-12-07T04:24:16;151.60;;;64.60;;
37903;SDS011;23738;50.422;18.758;2023-12-07T04:26:46;155.10;;;64.00;;
37903;SDS011;23738;50.422;18.758;2023-12-07T04:29:16;158.20;;;66.60;;
37903;SDS011;23738;50.422;18.758;2023-12-07T04:31:46;153.80;;;59.50;;
37903;SDS011;23738;50.422;18.758;2023-12-07T04:34:16;161.30;;;62.70;;
37903;SDS011;23738;50.422;18.758;2023-12-07T04:36:46;154.90;;;60.20;;
37903;SDS011;23738;50.422;18.758;2023-12-07T04:39:17;170.60;;;66.70;;
37903;SDS011;23738;50.422;18.758;2023-12-07T04:41:47;159.20;;;61.10;;
37903;SDS011;23738;50.422;18.758;2023-12-07T04:44:17;148.40;;;60.10;;
37903;SDS011;23738;50.422;18.758;2023-12-07T04:46:47;144.50;;;60.80;;
37903;SDS011;23738;50.422;18.758;2023-12-07T04:49:17;146.60;;;57.30;;
37903;SDS011;23738;50.422;18.758;2023-12-07T04:51:47;142.40;;;59.00;;
37903;SDS011;23738;50.422;18.758;2023-12-07T04:54:17;141.50;;;57.20;;
37903;SDS011;23738;50.422;18.758;2023-12-07T04:56:47;146.50;;;55.50;;
37903;SDS011;23738;50.422;18.758;2023-12-07T04:59:17;137.80;;;52.40;;
37903;SDS011;23738;50.422;18.758;2023-12-07T05:01:48;137.90;;;51.60;;
37903;SDS011;23738;50.422;18.758;2023-12-07T05:04:17;135.60;;;54.30;;
37903;SDS011;23738;50.422;18.758;2023-12-07T05:06:48;135.10;;;52.90;;
37903;SDS011;23738;50.422;18.758;2023-12-07T05:09:17;132.70;;;53.70;;
37903;SDS011;23738;50.422;18.758;2023-12-07T05:11:48;138.10;;;55.50;;
37903;SDS011;23738;50.422;18.758;2023-12-07T05:14:18;136.00;;;55.80;;
37903;SDS011;23738;50.422;18.758;2023-12-07T05:16:48;139.20;;;55.80;;
37903;SDS011;23738;50.422;18.758;2023-12-07T05:19:19;138.00;;;57.00;;
37903;SDS011;23738;50.422;18.758;2023-12-07T05:21:49;150.30;;;60.80;;
37903;SDS011;23738;50.422;18.758;2023-12-07T05:24:19;139.40;;;53.50;;
37903;SDS011;23738;50.422;18.758;2023-12-07T05:26:49;151.50;;;62.40;;
37903;SDS011;23738;50.422;18.758;2023-12-07T05:29:19;145.50;;;58.20;;
37903;SDS011;23738;50.422;18.758;2023-12-07T05:31:49;153.50;;;61.70;;
37903;SDS011;23738;50.422;18.758;2023-12-07T05:34:19;142.30;;;59.80;;
37903;SDS011;23738;50.422;18.758;2023-12-07T05:36:49;144.30;;;59.70;;
37903;SDS011;23738;50.422;18.758;2023-12-07T05:39:19;141.80;;;60.20;;
37903;SDS011;23738;50.422;18.758;2023-12-07T05:41:49;142.70;;;60.80;;
37903;SDS011;23738;50.422;18.758;2023-12-07T05:44:20;146.30;;;61.20;;
37903;SDS011;23738;50.422;18.758;2023-12-07T05:46:49;149.40;;;61.20;;
37903;SDS011;23738;50.422;18.758;2023-12-07T05:49:21;149.30;;;61.20;;
37903;SDS011;23738;50.422;18.758;2023-12-07T05:51:51;132.20;;;56.50;;
37903;SDS011;23738;50.422;18.758;2023-12-07T05:54:21;128.30;;;58.00;;
37903;SDS011;23738;50.422;18.758;2023-12-07T05:56:51;143.90;;;61.30;;
37903;SDS011;23738;50.422;18.758;2023-12-07T05:59:21;142.70;;;58.20;;
37903;SDS011;23738;50.422;18.758;2023-12-07T06:01:52;141.50;;;61.50;;
37903;SDS011;23738;50.422;18.758;2023-12-07T06:04:22;141.70;;;60.10;;
37903;SDS011;23738;50.422;18.758;2023-12-07T06:06:52;148.00;;;61.50;;
37903;SDS011;23738;50.422;18.758;2023-12-07T06:09:22;157.80;;;62.20;;
37903;SDS011;23738;50.422;18.758;2023-12-07T06:11:52;152.80;;;61.60;;
37903;SDS011;23738;50.422;18.758;2023-12-07T06:14:21;147.10;;;57.80;;
37903;SDS011;23738;50.422;18.758;2023-12-07T06:16:51;139.50;;;55.40;;
37903;SDS011;23738;50.422;18.758;2023-12-07T06:19:22;136.90;;;56.00;;
37903;SDS011;23738;50.422;18.758;2023-12-07T06:21:52;138.90;;;57.20;;
37903;SDS011;23738;50.422;18.758;2023-12-07T06:24:22;156.40;;;61.60;;
37903;SDS011;23738;50.422;18.758;2023-12-07T06:26:51;154.40;;;62.80;;
37903;SDS011;23738;50.422;18.758;2023-12-07T06:29:21;160.80;;;63.00;;
37903;SDS011;23738;50.422;18.758;2023-12-07T06:31:51;150.00;;;62.00;;
37903;SDS011;23738;50.422;18.758;2023-12-07T06:34:21;150.90;;;61.00;;
37903;SDS011;23738;50.422;18.758;2023-12-07T06:36:51;158.80;;;64.30;;
37903;SDS011;23738;50.422;18.758;2023-12-07T06:39:21;164.60;;;58.90;;
37903;SDS011;23738;50.422;18.758;2023-12-07T06:41:51;183.10;;;66.20;;
37903;SDS011;23738;50.422;18.758;2023-12-07T06:44:22;160.50;;;65.00;;
37903;SDS011;23738;50.422;18.758;2023-12-07T06:46:52;160.30;;;64.80;;
37903;SDS011;23738;50.422;18.758;2023-12-07T06:49:22;162.20;;;64.90;;
37903;SDS011;23738;50.422;18.758;2023-12-07T06:51:51;178.80;;;72.40;;
37903;SDS011;23738;50.422;18.758;2023-12-07T06:54:21;181.80;;;73.30;;
37903;SDS011;23738;50.422;18.758;2023-12-07T06:56:51;180.50;;;70.60;;
37903;SDS011;23738;50.422;18.758;2023-12-07T06:59:21;170.20;;;67.70;;
37903;SDS011;23738;50.422;18.758;2023-12-07T07:01:51;166.90;;;65.50;;
37903;SDS011;23738;50.422;18.758;2023-12-07T07:04:21;172.30;;;65.00;;
37903;SDS011;23738;50.422;18.758;2023-12-07T07:06:50;159.00;;;61.90;;
37903;SDS011;23738;50.422;18.758;2023-12-07T07:09:20;158.10;;;62.90;;
37903;SDS011;23738;50.422;18.758;2023-12-07T07:11:50;174.10;;;64.40;;
37903;SDS011;23738;50.422;18.758;2023-12-07T07:14:21;162.40;;;63.60;;
37903;SDS011;23738;50.422;18.758;2023-12-07T07:16:50;177.30;;;67.70;;
37903;SDS011;23738;50.422;18.758;2023-12-07T07:19:20;175.80;;;71.00;;
37903;SDS011;23738;50.422;18.758;2023-12-07T07:21:50;165.80;;;66.30;;
37903;SDS011;23738;50.422;18.758;2023-12-07T07:24:20;178.30;;;72.60;;
37903;SDS011;23738;50.422;18.758;2023-12-07T07:26:50;179.60;;;75.70;;
37903;SDS011;23738;50.422;18.758;2023-12-07T07:29:20;177.20;;;71.50;;
37903;SDS011;23738;50.422;18.758;2023-12-07T07:31:49;190.80;;;72.20;;
37903;SDS011;23738;50.422;18.758;2023-12-07T07:34:19;182.50;;;68.00;;
37903;SDS011;23738;50.422;18.758;2023-12-07T07:36:49;181.50;;;68.10;;
37903;SDS011;23738;50.422;18.758;2023-12-07T07:39:19;178.00;;;68.70;;
37903;SDS011;23738;50.422;18.758;2023-12-07T07:41:49;187.30;;;74.70;;
37903;SDS011;23738;50.422;18.758;2023-12-07T07:44:18;194.20;;;77.30;;
37903;SDS011;23738;50.422;18.758;2023-12-07T07:46:48;192.00;;;79.80;;
37903;SDS011;23738;50.422;18.758;2023-12-07T07:49:18;201.60;;;78.70;;
37903;SDS011;23738;50.422;18.758;2023-12-07T07:51:48;181.30;;;74.70;;
37903;SDS011;23738;50.422;18.758;2023-12-07T07:54:18;176.70;;;69.80;;
37903;SDS011;23738;50.422;18.758;2023-12-07T07:56:48;181.30;;;65.90;;
37903;SDS011;23738;50.422;18.758;2023-12-07T07:59:18;179.50;;;66.60;;
37903;SDS011;23738;50.422;18.758;2023-12-07T08:01:48;199.90;;;75.00;;
37903;SDS011;23738;50.422;18.758;2023-12-07T08:04:19;209.80;;;85.20;;
37903;SDS011;23738;50.422;18.758;2023-12-07T08:06:48;185.30;;;73.00;;
37903;SDS011;23738;50.422;18.758;2023-12-07T08:09:18;190.20;;;74.40;;
37903;SDS011;23738;50.422;18.758;2023-12-07T08:11:48;195.20;;;78.00;;
37903;SDS011;23738;50.422;18.758;2023-12-07T08:14:18;188.90;;;78.50;;
37903;SDS011;23738;50.422;18.758;2023-12-07T08:16:48;188.60;;;72.00;;
37903;SDS011;23738;50.422;18.758;2023-12-07T08:19:18;183.00;;;68.20;;
37903;SDS011;23738;50.422;18.758;2023-12-07T08:21:49;180.40;;;69.10;;
37903;SDS011;23738;50.422;18.758;2023-12-07T08:24:20;182.40;;;68.10;;
37903;SDS011;23738;50.422;18.758;2023-12-07T08:26:49;185.80;;;67.60;;
37903;SDS011;23738;50.422;18.758;2023-12-07T08:29:19;174.00;;;69.80;;
37903;SDS011;23738;50.422;18.758;2023-12-07T08:31:49;198.90;;;81.40;;
37903;SDS011;23738;50.422;18.758;2023-12-07T08:34:19;189.40;;;72.10;;
37903;SDS011;23738;50.422;18.758;2023-12-07T08:36:50;174.20;;;67.60;;
37903;SDS011;23738;50.422;18.758;2023-12-07T08:39:20;168.90;;;62.60;;
37903;SDS011;23738;50.422;18.758;2023-12-07T08:41:49;166.40;;;63.50;;
37903;SDS011;23738;50.422;18.758;2023-12-07T08:44:19;164.00;;;59.50;;
37903;SDS011;23738;50.422;18.758;2023-12-07T08:46:49;168.50;;;64.10;;
37903;SDS011;23738;50.422;18.758;2023-12-07T08:49:19;155.40;;;60.80;;
37903;SDS011;23738;50.422;18.758;2023-12-07T08:51:49;163.60;;;62.40;;
37903;SDS011;23738;50.422;18.758;2023-12-07T08:54:19;169.50;;;64.00;;
37903;SDS011;23738;50.422;18.758;2023-12-07T08:56:49;167.00;;;62.80;;
37903;SDS011;23738;50.422;18.758;2023-12-07T08:59:19;169.40;;;66.30;;
37903;SDS011;23738;50.422;18.758;2023-12-07T09:01:49;163.60;;;65.60;;
37903;SDS011;23738;50.422;18.758;2023-12-07T09:04:19;184.30;;;72.20;;
37903;SDS011;23738;50.422;18.758;2023-12-07T09:06:49;180.70;;;65.10;;
37903;SDS011;23738;50.422;18.758;2023-12-07T09:09:20;162.50;;;62.00;;
37903;SDS011;23738;50.422;18.758;2023-12-07T09:11:50;160.00;;;63.10;;
37903;SDS011;23738;50.422;18.758;2023-12-07T09:14:20;161.20;;;64.70;;
37903;SDS011;23738;50.422;18.758;2023-12-07T09:16:50;179.60;;;71.10;;
37903;SDS011;23738;50.422;18.758;2023-12-07T09:19:21;177.70;;;71.30;;
37903;SDS011;23738;50.422;18.758;2023-12-07T09:21:51;187.10;;;82.60;;
37903;SDS011;23738;50.422;18.758;2023-12-07T09:24:20;185.50;;;75.10;;
37903;SDS011;23738;50.422;18.758;2023-12-07T09:26:50;187.30;;;72.70;;
37903;SDS011;23738;50.422;18.758;2023-12-07T09:29:20;172.60;;;69.70;;
37903;SDS011;23738;50.422;18.758;2023-12-07T09:31:50;178.70;;;66.00;;
37903;SDS011;23738;50.422;18.758;2023-12-07T09:34:20;166.80;;;64.00;;
37903;SDS011;23738;50.422;18.758;2023-12-07T09:36:50;170.50;;;66.30;;
37903;SDS011;23738;50.422;18.758;2023-12-07T09:39:35;166.40;;;62.20;;
37903;SDS011;23738;50.422;18.758;2023-12-07T09:42:05;174.90;;;66.20;;
37903;SDS011;23738;50.422;18.758;2023-12-07T09:44:35;163.90;;;65.30;;
37903;SDS011;23738;50.422;18.758;2023-12-07T09:47:05;165.50;;;65.90;;
37903;SDS011;23738;50.422;18.758;2023-12-07T09:49:36;173.10;;;67.30;;
37903;SDS011;23738;50.422;18.758;2023-12-07T09:52:08;158.20;;;64.50;;
37903;SDS011;23738;50.422;18.758;2023-12-07T09:54:41;158.90;;;59.40;;
37903;SDS011;23738;50.422;18.758;2023-12-07T09:57:11;151.80;;;59.10;;
37903;SDS011;23738;50.422;18.758;2023-12-07T09:59:42;154.70;;;59.70;;
37903;SDS011;23738;50.422;18.758;2023-12-07T10:02:13;139.70;;;57.00;;
37903;SDS011;23738;50.422;18.758;2023-12-07T10:04:44;159.20;;;60.80;;
37903;SDS011;23738;50.422;18.758;2023-12-07T10:07:14;257.30;;;94.60;;
37903;SDS011;23738;50.422;18.758;2023-12-07T10:09:46;207.90;;;76.50;;
37903;SDS011;23738;50.422;18.758;2023-12-07T10:12:16;237.10;;;84.30;;
37903;SDS011;23738;50.422;18.758;2023-12-07T10:14:45;182.10;;;68.50;;
37903;SDS011;23738;50.422;18.758;2023-12-07T10:17:17;163.40;;;63.70;;
37903;SDS011;23738;50.422;18.758;2023-12-07T10:19:47;146.80;;;54.40;;
37903;SDS011;23738;50.422;18.758;2023-12-07T10:22:36;150.60;;;57.00;;
37903;SDS011;23738;50.422;18.758;2023-12-07T10:25:08;193.80;;;70.70;;
37903;SDS011;23738;50.422;18.758;2023-12-07T10:27:41;183.30;;;66.20;;
37903;SDS011;23738;50.422;18.758;2023-12-07T10:30:12;174.40;;;65.90;;
37903;SDS011;23738;50.422;18.758;2023-12-07T10:32:42;165.10;;;64.60;;
37903;SDS011;23738;50.422;18.758;2023-12-07T10:35:11;152.10;;;60.20;;
37903;SDS011;23738;50.422;18.758;2023-12-07T10:37:42;138.80;;;55.70;;
37903;SDS011;23738;50.422;18.758;2023-12-07T10:40:13;154.50;;;60.50;;
37903;SDS011;23738;50.422;18.758;2023-12-07T10:42:47;159.80;;;64.30;;
37903;SDS011;23738;50.422;18.758;2023-12-07T10:45:20;154.20;;;59.70;;
37903;SDS011;23738;50.422;18.758;2023-12-07T10:47:55;138.20;;;56.90;;
37903;SDS011;23738;50.422;18.758;2023-12-07T10:50:31;151.70;;;59.40;;
37903;SDS011;23738;50.422;18.758;2023-12-07T10:53:09;149.60;;;62.80;;
37903;SDS011;23738;50.422;18.758;2023-12-07T10:55:47;155.70;;;65.50;;
37903;SDS011;23738;50.422;18.758;2023-12-07T10:58:21;165.40;;;73.20;;
37903;SDS011;23738;50.422;18.758;2023-12-07T11:00:53;157.50;;;66.80;;
37903;SDS011;23738;50.422;18.758;2023-12-07T11:03:24;154.80;;;63.30;;
37903;SDS011;23738;50.422;18.758;2023-12-07T11:05:56;157.90;;;65.20;;
37903;SDS011;23738;50.422;18.758;2023-12-07T11:08:28;154.70;;;64.50;;
37903;SDS011;23738;50.422;18.758;2023-12-07T11:11:06;154.00;;;62.90;;
37903;SDS011;23738;50.422;18.758;2023-12-07T11:16:13;151.30;;;57.00;;
37903;SDS011;23738;50.422;18.758;2023-12-07T11:18:43;135.70;;;56.50;;
37903;SDS011;23738;50.422;18.758;2023-12-07T11:21:13;149.70;;;59.80;;
37903;SDS011;23738;50.422;18.758;2023-12-07T11:23:43;147.90;;;59.60;;
37903;SDS011;23738;50.422;18.758;2023-12-07T11:26:14;143.80;;;59.40;;
37903;SDS011;23738;50.422;18.758;2023-12-07T11:28:48;146.70;;;61.80;;
37903;SDS011;23738;50.422;18.758;2023-12-07T11:31:19;151.20;;;62.10;;
37903;SDS011;23738;50.422;18.758;2023-12-07T11:33:49;161.10;;;67.00;;
37903;SDS011;23738;50.422;18.758;2023-12-07T11:36:20;145.30;;;62.90;;
37903;SDS011;23738;50.422;18.758;2023-12-07T11:41:49;167.40;;;66.80;;
37903;SDS011;23738;50.422;18.758;2023-12-07T11:44:22;189.30;;;77.50;;
37903;SDS011;23738;50.422;18.758;2023-12-07T11:47:00;170.30;;;68.60;;
37903;SDS011;23738;50.422;18.758;2023-12-07T11:49:31;161.70;;;66.50;;
37903;SDS011;23738;50.422;18.758;2023-12-07T11:52:11;180.20;;;74.20;;
37903;SDS011;23738;50.422;18.758;2023-12-07T11:54:43;192.50;;;79.90;;
37903;SDS011;23738;50.422;18.758;2023-12-07T11:57:14;180.70;;;75.50;;
37903;SDS011;23738;50.422;18.758;2023-12-07T11:59:45;171.00;;;74.20;;
37903;SDS011;23738;50.422;18.758;2023-12-07T12:02:15;162.80;;;70.90;;
37903;SDS011;23738;50.422;18.758;2023-12-07T12:04:45;176.40;;;71.30;;
37903;SDS011;23738;50.422;18.758;2023-12-07T12:07:15;176.70;;;69.00;;
37903;SDS011;23738;50.422;18.758;2023-12-07T12:09:45;192.30;;;77.60;;
37903;SDS011;23738;50.422;18.758;2023-12-07T12:12:15;163.10;;;66.70;;
37903;SDS011;23738;50.422;18.758;2023-12-07T12:14:45;152.90;;;67.10;;
37903;SDS011;23738;50.422;18.758;2023-12-07T12:17:16;165.90;;;72.80;;
37903;SDS011;23738;50.422;18.758;2023-12-07T12:19:46;159.40;;;67.20;;
37903;SDS011;23738;50.422;18.758;2023-12-07T12:22:21;156.70;;;65.80;;
37903;SDS011;23738;50.422;18.758;2023-12-07T12:24:51;159.30;;;68.20;;
37903;SDS011;23738;50.422;18.758;2023-12-07T12:27:21;164.30;;;69.00;;
37903;SDS011;23738;50.422;18.758;2023-12-07T12:29:52;161.80;;;66.20;;
37903;SDS011;23738;50.422;18.758;2023-12-07T12:32:22;157.20;;;63.50;;
37903;SDS011;23738;50.422;18.758;2023-12-07T12:34:52;151.40;;;64.70;;
37903;SDS011;23738;50.422;18.758;2023-12-07T12:37:22;142.50;;;60.20;;
37903;SDS011;23738;50.422;18.758;2023-12-07T12:39:54;145.40;;;63.50;;
37903;SDS011;23738;50.422;18.758;2023-12-07T12:42:24;153.00;;;67.90;;
37903;SDS011;23738;50.422;18.758;2023-12-07T12:44:54;152.30;;;64.70;;
37903;SDS011;23738;50.422;18.758;2023-12-07T12:47:24;139.00;;;62.20;;
37903;SDS011;23738;50.422;18.758;2023-12-07T12:49:55;143.10;;;64.20;;
37903;SDS011;23738;50.422;18.758;2023-12-07T12:52:24;143.10;;;63.00;;
37903;SDS011;23738;50.422;18.758;2023-12-07T12:54:56;180.40;;;78.70;;
37903;SDS011;23738;50.422;18.758;2023-12-07T12:57:26;159.20;;;65.20;;
37903;SDS011;23738;50.422;18.758;2023-12-07T12:59:59;196.40;;;85.50;;
37903;SDS011;23738;50.422;18.758;2023-12-07T13:02:30;234.80;;;96.00;;
37903;SDS011;23738;50.422;18.758;2023-12-07T13:05:00;178.40;;;75.70;;
37903;SDS011;23738;50.422;18.758;2023-12-07T13:07:30;192.30;;;81.30;;
37903;SDS011;23738;50.422;18.758;2023-12-07T13:10:02;184.00;;;78.70;;
37903;SDS011;23738;50.422;18.758;2023-12-07T13:12:35;191.00;;;86.40;;
37903;SDS011;23738;50.422;18.758;2023-12-07T13:15:05;168.50;;;72.10;;
37903;SDS011;23738;50.422;18.758;2023-12-07T13:17:37;163.90;;;71.20;;
37903;SDS011;23738;50.422;18.758;2023-12-07T13:20:08;167.50;;;71.80;;
37903;SDS011;23738;50.422;18.758;2023-12-07T13:22:40;156.60;;;63.00;;
37903;SDS011;23738;50.422;18.758;2023-12-07T13:25:11;188.50;;;80.70;;
37903;SDS011;23738;50.422;18.758;2023-12-07T13:27:42;168.30;;;72.20;;
37903;SDS011;23738;50.422;18.758;2023-12-07T13:30:12;172.00;;;73.50;;
37903;SDS011;23738;50.422;18.758;2023-12-07T13:32:42;144.80;;;62.20;;
37903;SDS011;23738;50.422;18.758;2023-12-07T13:35:12;143.00;;;64.40;;
37903;SDS011;23738;50.422;18.758;2023-12-07T13:37:42;142.30;;;62.50;;
37903;SDS011;23738;50.422;18.758;2023-12-07T13:40:12;146.40;;;63.90;;
37903;SDS011;23738;50.422;18.758;2023-12-07T13:42:42;143.50;;;61.60;;
37903;SDS011;23738;50.422;18.758;2023-12-07T13:45:12;139.30;;;58.20;;
37903;SDS011;23738;50.422;18.758;2023-12-07T13:47:42;153.30;;;63.90;;
37903;SDS011;23738;50.422;18.758;2023-12-07T13:50:14;157.50;;;69.10;;
37903;SDS011;23738;50.422;18.758;2023-12-07T13:52:44;166.70;;;71.60;;
37903;SDS011;23738;50.422;18.758;2023-12-07T13:55:14;150.00;;;63.80;;
37903;SDS011;23738;50.422;18.758;2023-12-07T13:57:44;149.90;;;65.40;;
37903;SDS011;23738;50.422;18.758;2023-12-07T14:00:15;149.70;;;65.90;;
37903;SDS011;23738;50.422;18.758;2023-12-07T14:02:46;148.60;;;62.80;;
37903;SDS011;23738;50.422;18.758;2023-12-07T14:05:16;145.30;;;61.80;;
37903;SDS011;23738;50.422;18.758;2023-12-07T14:07:46;142.50;;;64.70;;
37903;SDS011;23738;50.422;18.758;2023-12-07T14:10:16;140.70;;;57.50;;
37903;SDS011;23738;50.422;18.758;2023-12-07T14:12:46;132.90;;;54.10;;
37903;SDS011;23738;50.422;18.758;2023-12-07T14:15:16;118.30;;;53.50;;
37903;SDS011;23738;50.422;18.758;2023-12-07T14:17:46;135.30;;;56.00;;
37903;SDS011;23738;50.422;18.758;2023-12-07T14:20:16;127.10;;;55.50;;
37903;SDS011;23738;50.422;18.758;2023-12-07T14:22:47;127.40;;;55.00;;